createdAt,value
2019-03-05T00:00:18.769Z,8.58
2019-03-05T00:02:47.172Z,8.73
2019-03-05T00:05:13.706Z,8.03
2019-03-05T00:07:40.136Z,7.72
2019-03-05T00:10:15.889Z,8.23
2019-03-05T00:12:42.325Z,7.90
2019-03-05T00:15:11.263Z,8.33
2019-03-05T00:17:38.703Z,8.18
2019-03-05T00:20:08.678Z,8.18
2019-03-05T00:22:35.119Z,8.35
2019-03-05T00:25:16.938Z,7.47
2019-03-05T00:27:49.956Z,8.45
2019-03-05T00:30:20.220Z,7.53
2019-03-05T00:32:50.480Z,8.53
2019-03-05T00:35:23.464Z,8.03
2019-03-05T00:37:53.715Z,7.92
2019-03-05T00:40:32.441Z,7.05
2019-03-05T00:43:05.829Z,7.37
2019-03-05T00:45:50.596Z,7.85
2019-03-05T00:48:39.229Z,7.17
2019-03-05T00:51:29.401Z,8.60
2019-03-05T00:54:19.702Z,8.20
2019-03-05T00:57:02.207Z,7.00
2019-03-05T00:59:56.780Z,7.42
2019-03-05T01:02:35.969Z,5.90
2019-03-05T01:05:22.702Z,4.70
2019-03-05T01:07:49.264Z,4.80
2019-03-05T01:10:16.507Z,4.05
2019-03-05T01:12:43.338Z,3.25
2019-03-05T01:15:10.196Z,3.20
2019-03-05T01:17:36.770Z,3.75
2019-03-05T01:20:06.405Z,4.22
2019-03-05T01:22:32.892Z,6.22
2019-03-05T01:24:59.418Z,5.85
2019-03-05T01:27:25.875Z,5.28
2019-03-05T01:29:52.539Z,4.20
2019-03-05T01:32:21.012Z,4.65
2019-03-05T01:34:52.290Z,5.05
2019-03-05T01:37:18.734Z,4.62
2019-03-05T01:39:47.084Z,5.70
2019-03-05T01:42:13.601Z,6.58
2019-03-05T01:44:40.173Z,7.53
2019-03-05T01:47:06.793Z,6.30
2019-03-05T01:49:33.249Z,5.08
2019-03-05T01:51:59.803Z,5.75
2019-03-05T01:54:26.280Z,3.70
2019-03-05T01:56:52.755Z,4.28
2019-03-05T01:59:19.197Z,4.40
2019-03-05T02:01:45.645Z,4.12
2019-03-05T02:04:12.915Z,3.70
2019-03-05T02:06:39.486Z,3.90
2019-03-05T02:09:07.566Z,3.02
2019-03-05T02:11:34.619Z,2.95
2019-03-05T02:14:01.094Z,2.70
2019-03-05T02:16:27.530Z,35.78
2019-03-05T02:18:57.816Z,6.00
2019-03-05T02:21:24.247Z,6.15
2019-03-05T02:24:14.041Z,5.40
2019-03-05T02:27:02.410Z,7.17
2019-03-05T02:29:48.279Z,5.10
2019-03-05T02:32:36.860Z,3.85
2019-03-05T02:35:25.176Z,3.33
2019-03-05T02:38:10.518Z,2.90
2019-03-05T02:40:52.686Z,2.65
2019-03-05T02:43:34.871Z,3.17
2019-03-05T02:46:11.169Z,3.58
2019-03-05T02:49:00.995Z,3.70
2019-03-05T02:51:31.224Z,3.40
2019-03-05T02:54:22.680Z,3.42
2019-03-05T02:57:07.933Z,6.30
2019-03-05T02:59:34.973Z,8.60
2019-03-05T03:09:29.378Z,4.10
2019-03-05T03:11:55.828Z,4.53
2019-03-05T03:14:22.286Z,7.97
2019-03-05T03:16:49.841Z,7.20
2019-03-05T03:19:16.270Z,5.95
2019-03-05T03:21:42.707Z,6.22
2019-03-05T03:24:09.164Z,7.05
2019-03-05T03:26:35.703Z,6.85
2019-03-05T03:29:02.177Z,6.90
2019-03-05T03:31:28.629Z,7.10
2019-03-05T03:33:55.060Z,5.15
2019-03-05T03:36:21.582Z,6.10
2019-03-05T03:38:48.068Z,5.25
2019-03-05T03:41:15.489Z,6.15
2019-03-05T03:43:41.931Z,5.15
2019-03-05T03:46:08.521Z,6.33
2019-03-05T03:48:34.979Z,6.22
2019-03-05T03:51:01.448Z,5.55
2019-03-05T03:53:29.014Z,6.75
2019-03-05T03:55:55.649Z,6.65
2019-03-05T03:58:22.284Z,8.15
2019-03-05T04:00:48.765Z,7.95
2019-03-05T04:03:15.700Z,10.00
2019-03-05T04:05:42.244Z,9.80
2019-03-05T04:08:10.467Z,8.90
2019-03-05T04:10:37.186Z,9.33
2019-03-05T04:13:03.641Z,8.08
2019-03-05T04:15:30.072Z,7.25
2019-03-05T04:17:56.635Z,5.70
2019-03-05T04:20:27.714Z,7.08
2019-03-05T04:22:54.165Z,6.42
2019-03-05T04:25:20.601Z,6.33
2019-03-05T04:27:47.052Z,6.00
2019-03-05T04:30:13.723Z,6.37
2019-03-05T04:32:40.187Z,6.37
2019-03-05T04:35:09.541Z,6.28
2019-03-05T04:37:35.993Z,6.95
2019-03-05T04:40:04.917Z,6.70
2019-03-05T04:42:31.369Z,5.65
2019-03-05T04:44:59.711Z,5.87
2019-03-05T04:47:26.170Z,6.15
2019-03-05T04:49:54.522Z,6.40
2019-03-05T04:52:22.270Z,5.87
2019-03-05T04:54:48.697Z,6.37
2019-03-05T04:57:15.141Z,7.37
2019-03-05T04:59:41.607Z,10.32
2019-03-05T05:02:08.147Z,6.80
2019-03-05T05:04:34.717Z,12.28
2019-03-05T05:07:01.156Z,9.90
2019-03-05T05:09:27.741Z,8.08
2019-03-05T05:11:54.181Z,8.13
2019-03-05T05:14:20.632Z,9.00
2019-03-05T05:16:47.053Z,7.40
2019-03-05T05:19:13.496Z,7.78
2019-03-05T05:21:40.252Z,8.05
2019-03-05T05:24:06.712Z,8.88
2019-03-05T05:26:33.174Z,10.80
2019-03-05T05:28:59.737Z,8.58
2019-03-05T05:31:26.156Z,11.05
2019-03-05T05:33:52.614Z,14.13
2019-03-05T05:36:19.138Z,16.48
2019-03-05T05:38:45.565Z,15.83
2019-03-05T05:41:12.027Z,14.05
2019-03-05T05:43:38.455Z,15.15
2019-03-05T05:46:04.991Z,14.15
2019-03-05T05:48:31.445Z,13.75
2019-03-05T05:50:57.887Z,11.30
2019-03-05T05:53:24.307Z,12.47
2019-03-05T05:55:50.753Z,11.78
2019-03-05T05:58:17.309Z,11.00
2019-03-05T06:00:48.882Z,12.65
2019-03-05T06:03:15.414Z,16.12
2019-03-05T06:05:41.876Z,16.23
2019-03-05T06:08:08.359Z,17.27
2019-03-05T06:10:35.055Z,22.95
2019-03-05T06:13:01.533Z,17.40
2019-03-05T06:15:28.053Z,18.77
2019-03-05T06:17:54.605Z,24.75
2019-03-05T06:20:21.055Z,24.80
2019-03-05T06:22:47.507Z,21.95
2019-03-05T06:25:14.273Z,24.72
2019-03-05T06:27:40.730Z,19.60
2019-03-05T06:30:17.870Z,18.67
2019-03-05T06:32:44.463Z,17.48
2019-03-05T06:35:11.440Z,16.65
2019-03-05T06:37:37.898Z,34.13
2019-03-05T06:40:10.924Z,31.10
2019-03-05T06:42:37.355Z,20.15
2019-03-05T06:45:06.898Z,14.50
2019-03-05T06:47:33.334Z,16.00
2019-03-05T06:49:59.852Z,16.00
2019-03-05T06:52:26.269Z,20.37
2019-03-05T06:54:52.719Z,19.05
2019-03-05T06:57:19.145Z,16.32
2019-03-05T06:59:45.573Z,15.45
2019-03-05T07:02:12.024Z,14.68
2019-03-05T07:04:38.457Z,14.78
2019-03-05T07:07:04.997Z,13.65
2019-03-05T07:09:41.066Z,15.05
2019-03-05T07:12:14.362Z,16.42
2019-03-05T07:15:07.542Z,20.00
2019-03-05T07:17:58.636Z,18.42
2019-03-05T07:21:00.207Z,14.47
2019-03-05T07:23:56.039Z,14.38
2019-03-05T07:26:22.598Z,10.88
2019-03-05T07:28:49.017Z,13.32
2019-03-05T07:31:15.462Z,14.07
2019-03-05T07:33:41.918Z,15.15
2019-03-05T07:36:08.463Z,16.67
2019-03-05T07:38:36.126Z,15.23
2019-03-05T07:41:02.668Z,12.70
2019-03-05T07:43:36.462Z,13.40
2019-03-05T07:45:57.406Z,13.03
2019-03-05T07:48:23.851Z,11.53
2019-03-05T07:50:50.280Z,12.20
2019-03-05T07:53:16.752Z,13.88
2019-03-05T07:55:43.195Z,13.30
2019-03-05T07:58:09.730Z,11.08
2019-03-05T08:00:36.677Z,10.72
2019-03-05T08:03:03.249Z,11.57
2019-03-05T08:05:29.666Z,10.98
2019-03-05T08:07:59.922Z,12.37
2019-03-05T08:10:28.769Z,10.78
2019-03-05T08:13:14.342Z,11.57
2019-03-05T08:15:47.616Z,10.80
2019-03-05T08:18:14.061Z,10.08
2019-03-05T08:20:40.597Z,10.58
2019-03-05T08:23:08.242Z,10.00
2019-03-05T08:25:34.676Z,11.12
2019-03-05T08:28:01.123Z,10.38
2019-03-05T08:30:27.768Z,10.93
2019-03-05T08:32:54.338Z,11.38
2019-03-05T08:35:20.799Z,10.15
2019-03-05T08:37:47.279Z,12.05
2019-03-05T08:40:14.911Z,12.80
2019-03-05T08:42:41.378Z,13.60
2019-03-05T08:45:13.227Z,13.00
2019-03-05T08:47:39.928Z,15.75
2019-03-05T08:50:13.715Z,17.67
2019-03-05T08:52:40.171Z,18.42
2019-03-05T08:55:08.606Z,17.92
2019-03-05T08:57:35.150Z,15.10
2019-03-05T09:00:04.713Z,13.78
2019-03-05T09:02:31.634Z,13.62
2019-03-05T09:04:58.179Z,12.25
2019-03-05T09:07:24.823Z,11.15
2019-03-05T09:09:51.277Z,11.30
2019-03-05T09:12:17.747Z,10.43
2019-03-05T09:14:44.193Z,12.82
2019-03-05T09:17:11.225Z,11.80
2019-03-05T09:19:37.805Z,12.65
2019-03-05T09:22:05.583Z,11.63
2019-03-05T09:24:32.166Z,12.18
2019-03-05T09:26:58.727Z,11.33
2019-03-05T09:29:25.291Z,10.80
2019-03-05T09:31:51.896Z,10.15
2019-03-05T09:34:18.470Z,10.00
2019-03-05T09:36:51.057Z,9.75
2019-03-05T09:39:13.347Z,8.60
2019-03-05T09:41:40.489Z,9.23
2019-03-05T09:44:07.031Z,9.35
2019-03-05T09:46:33.498Z,8.43
2019-03-05T09:48:59.929Z,9.00
2019-03-05T09:51:26.411Z,7.37
2019-03-05T09:53:53.040Z,7.08
2019-03-05T09:56:19.494Z,6.35
2019-03-05T09:58:45.967Z,7.50
2019-03-05T10:01:12.502Z,6.83
2019-03-05T10:03:39.034Z,5.83
2019-03-05T10:06:06.598Z,4.87
2019-03-05T10:08:33.068Z,5.15
2019-03-05T10:10:59.695Z,7.58
2019-03-05T10:13:26.237Z,7.15
2019-03-05T10:15:53.583Z,7.87
2019-03-05T10:18:20.472Z,8.40
2019-03-05T10:20:47.031Z,8.78
2019-03-05T10:23:13.614Z,9.48
2019-03-05T10:25:40.248Z,7.97
2019-03-05T10:28:06.861Z,7.92
2019-03-05T10:30:38.473Z,8.38
2019-03-05T10:33:09.782Z,9.03
2019-03-05T10:35:36.520Z,9.05
2019-03-05T10:38:06.202Z,9.55
2019-03-05T10:40:48.223Z,8.68
2019-03-05T10:43:16.068Z,8.20
2019-03-05T10:45:44.807Z,9.00
2019-03-05T10:48:12.843Z,8.63
2019-03-05T10:50:39.505Z,9.05
2019-03-05T10:53:06.245Z,8.93
2019-03-05T10:55:32.930Z,8.30
2019-03-05T10:57:59.659Z,8.50
2019-03-05T11:00:34.961Z,7.90
2019-03-05T11:03:01.803Z,7.80
2019-03-05T11:05:30.966Z,7.58
2019-03-05T11:07:57.816Z,8.13
2019-03-05T11:10:27.686Z,8.40
2019-03-05T11:12:54.234Z,8.10
2019-03-05T11:15:26.204Z,8.18
2019-03-05T11:17:52.960Z,7.65
2019-03-05T11:20:19.714Z,8.10
2019-03-05T11:22:47.285Z,7.15
2019-03-05T11:25:14.713Z,7.42
2019-03-05T11:27:41.401Z,7.17
2019-03-05T11:30:35.723Z,7.35
2019-03-05T11:32:55.191Z,7.30
2019-03-05T11:35:24.486Z,6.60
2019-03-05T11:37:51.120Z,7.65
2019-03-05T11:40:21.275Z,64.60
2019-03-05T11:42:47.554Z,7.50
2019-03-05T11:45:23.036Z,6.72
2019-03-05T11:47:49.706Z,6.30
2019-03-05T11:50:16.379Z,6.05
2019-03-05T11:52:42.924Z,5.10
2019-03-05T11:55:15.473Z,5.45
2019-03-05T11:57:42.587Z,5.30
2019-03-05T12:00:15.722Z,6.10
2019-03-05T12:02:42.263Z,5.15
2019-03-05T12:05:12.128Z,5.28
2019-03-05T12:07:38.789Z,4.87
2019-03-05T12:10:09.021Z,5.40
2019-03-05T12:12:35.574Z,4.75
2019-03-05T12:15:04.214Z,4.97
2019-03-05T12:17:30.784Z,4.75
2019-03-05T12:19:57.236Z,5.15
2019-03-05T12:22:23.800Z,4.70
2019-03-05T12:24:50.233Z,5.00
2019-03-05T12:27:16.696Z,5.80
2019-03-05T12:29:43.159Z,5.20
2019-03-05T12:32:09.577Z,5.70
2019-03-05T12:34:37.120Z,5.12
2019-03-05T12:37:03.574Z,5.62
2019-03-05T12:39:30.011Z,4.95
2019-03-05T12:41:56.573Z,5.10
2019-03-05T12:44:23.043Z,5.25
2019-03-05T12:46:49.468Z,4.78
2019-03-05T12:49:17.130Z,5.42
2019-03-05T12:51:43.648Z,5.85
2019-03-05T12:54:10.292Z,4.87
2019-03-05T12:56:36.750Z,6.28
2019-03-05T12:59:03.405Z,5.60
2019-03-05T13:01:29.887Z,5.45
2019-03-05T13:03:56.433Z,5.28
2019-03-05T13:06:22.901Z,5.15
2019-03-05T13:08:49.334Z,5.35
2019-03-05T13:11:15.875Z,4.85
2019-03-05T13:13:42.336Z,4.87
2019-03-05T13:16:08.964Z,5.17
2019-03-05T13:18:35.410Z,4.85
2019-03-05T13:21:03.525Z,5.10
2019-03-05T13:23:31.501Z,5.10
2019-03-05T13:25:58.896Z,5.00
2019-03-05T13:28:25.458Z,5.40
2019-03-05T13:30:51.901Z,5.00
2019-03-05T13:33:18.475Z,5.08
2019-03-05T13:35:45.018Z,5.00
2019-03-05T13:38:11.587Z,4.87
2019-03-05T13:40:39.985Z,5.42
2019-03-05T13:43:06.613Z,5.03
2019-03-05T13:45:33.257Z,5.00
2019-03-05T13:48:19.512Z,4.92
2019-03-05T13:51:05.724Z,4.87
2019-03-05T13:54:00.907Z,4.72
2019-03-05T13:56:37.775Z,5.00
2019-03-05T13:59:33.453Z,5.03
2019-03-05T14:01:59.982Z,5.08
2019-03-05T14:04:42.286Z,5.15
2019-03-05T14:07:18.147Z,5.30
2019-03-05T14:09:44.410Z,4.78
2019-03-05T14:12:10.942Z,4.75
2019-03-05T14:14:37.439Z,4.75
2019-03-05T14:17:09.081Z,4.70
2019-03-05T14:19:35.782Z,4.47
2019-03-05T14:22:02.489Z,4.85
2019-03-05T14:24:28.931Z,5.00
2019-03-05T14:26:55.397Z,4.87
2019-03-05T14:29:21.897Z,4.62
2019-03-05T14:31:48.463Z,4.58
2019-03-05T14:34:15.135Z,8.83
2019-03-05T14:36:41.728Z,5.60
2019-03-05T14:39:13.924Z,6.65
2019-03-05T14:41:40.478Z,4.42
2019-03-05T14:44:07.349Z,3.95
2019-03-05T14:46:34.908Z,4.45
2019-03-05T14:49:01.591Z,4.30
2019-03-05T14:51:28.188Z,4.35
2019-03-05T14:53:54.749Z,3.98
2019-03-05T14:56:21.163Z,3.85
2019-03-05T14:58:47.617Z,4.60
2019-03-05T15:01:14.185Z,4.47
2019-03-05T15:03:40.661Z,4.05
2019-03-05T15:06:07.081Z,4.12
2019-03-05T15:08:33.672Z,4.35
2019-03-05T15:11:00.139Z,4.30
2019-03-05T15:13:26.578Z,4.58
2019-03-05T15:15:53.034Z,4.75
2019-03-05T15:18:19.493Z,4.72
2019-03-05T15:20:45.927Z,4.60
2019-03-05T15:23:12.461Z,5.37
2019-03-05T15:25:39.094Z,5.40
2019-03-05T15:28:05.591Z,4.90
2019-03-05T15:30:32.134Z,7.35
2019-03-05T15:32:58.566Z,4.80
2019-03-05T15:35:25.069Z,5.00
2019-03-05T15:37:51.510Z,13.15
2019-03-05T15:40:18.791Z,10.30
2019-03-05T15:42:45.515Z,6.55
2019-03-05T15:45:15.014Z,5.53
2019-03-05T15:47:42.704Z,5.45
2019-03-05T15:50:12.208Z,5.28
2019-03-05T15:52:38.643Z,5.58
2019-03-05T15:55:08.502Z,5.40
2019-03-05T15:57:34.972Z,5.17
2019-03-05T16:00:02.438Z,5.25
2019-03-05T16:02:30.478Z,5.20
2019-03-05T16:04:57.070Z,5.30
2019-03-05T16:07:23.520Z,4.85
2019-03-05T16:09:50.930Z,4.85
2019-03-05T16:12:17.662Z,5.28
2019-03-05T16:14:44.113Z,6.87
2019-03-05T16:17:10.656Z,5.15
2019-03-05T16:19:37.220Z,5.20
2019-03-05T16:22:03.811Z,7.55
2019-03-05T16:24:33.764Z,6.47
2019-03-05T16:26:58.644Z,11.83
2019-03-05T16:29:25.118Z,7.95
2019-03-05T16:31:53.459Z,6.45
2019-03-05T16:34:33.723Z,6.72
2019-03-05T16:37:05.752Z,6.80
2019-03-05T16:39:35.292Z,5.78
2019-03-05T16:42:22.274Z,5.35
2019-03-05T16:44:50.674Z,5.40
2019-03-05T16:47:27.901Z,5.45
2019-03-05T16:50:05.413Z,5.90
2019-03-05T16:52:33.881Z,6.12
2019-03-05T16:55:05.262Z,5.42
2019-03-05T16:57:36.640Z,5.83
2019-03-05T17:00:16.198Z,11.40
2019-03-05T17:02:45.275Z,7.90
2019-03-05T17:05:23.408Z,9.58
2019-03-05T17:07:58.168Z,11.33
2019-03-05T17:10:30.164Z,10.13
2019-03-05T17:13:01.571Z,8.45
2019-03-05T17:15:28.887Z,6.03
2019-03-05T17:17:55.511Z,9.15
2019-03-05T17:20:22.125Z,8.80
2019-03-05T17:22:49.218Z,6.30
2019-03-05T17:25:18.757Z,6.35
2019-03-05T17:27:45.267Z,6.45
2019-03-05T17:30:15.140Z,7.10
2019-03-05T17:32:41.971Z,14.47
2019-03-05T17:35:09.529Z,10.15
2019-03-05T17:37:37.586Z,7.17
2019-03-05T17:40:07.961Z,6.60
2019-03-05T17:42:34.919Z,6.62
2019-03-05T17:45:01.509Z,9.75
2019-03-05T17:47:29.386Z,14.98
2019-03-05T17:49:55.942Z,14.00
2019-03-05T17:52:22.668Z,7.62
2019-03-05T17:54:49.182Z,9.28
2019-03-05T17:57:16.080Z,7.90
2019-03-05T17:59:42.649Z,7.92
2019-03-05T18:02:09.482Z,11.57
2019-03-05T18:04:36.120Z,9.18
2019-03-05T18:07:02.889Z,11.50
2019-03-05T18:09:29.431Z,15.85
2019-03-05T18:11:55.997Z,20.90
2019-03-05T18:14:23.671Z,22.45
2019-03-05T18:16:50.225Z,20.45
2019-03-05T18:19:16.822Z,19.42
2019-03-05T18:21:43.486Z,15.32
2019-03-05T18:24:10.053Z,14.03
2019-03-05T18:26:36.637Z,12.35
2019-03-05T18:29:03.610Z,9.35
2019-03-05T18:31:30.266Z,8.00
2019-03-05T18:33:56.835Z,10.20
2019-03-05T18:36:23.304Z,10.40
2019-03-05T18:38:50.081Z,9.53
2019-03-05T18:41:16.938Z,8.28
2019-03-05T18:43:43.666Z,9.38
2019-03-05T18:46:10.625Z,9.88
2019-03-05T18:48:37.211Z,8.30
2019-03-05T18:51:04.128Z,8.48
2019-03-05T18:53:30.595Z,30.35
2019-03-05T18:55:57.117Z,17.73
2019-03-05T18:58:23.598Z,34.43
2019-03-05T19:00:50.259Z,31.27
2019-03-05T19:03:18.446Z,29.40
2019-03-05T19:05:45.008Z,32.13
2019-03-05T19:08:11.651Z,30.88
2019-03-05T19:10:49.035Z,28.75
2019-03-05T19:13:15.703Z,25.50
2019-03-05T19:15:42.660Z,15.63
2019-03-05T19:18:09.257Z,11.57
2019-03-05T19:20:35.938Z,11.63
2019-03-05T19:23:02.727Z,12.10
2019-03-05T19:25:38.543Z,11.90
2019-03-05T19:28:05.235Z,11.57
2019-03-05T19:30:37.067Z,13.25
2019-03-05T19:33:04.135Z,12.73
2019-03-05T19:35:30.743Z,12.10
2019-03-05T19:37:57.337Z,13.43
2019-03-05T19:40:27.638Z,14.10
2019-03-05T19:42:54.313Z,13.45
2019-03-05T19:45:22.198Z,15.03
2019-03-05T19:47:48.790Z,16.27
2019-03-05T19:50:20.258Z,18.82
2019-03-05T19:52:46.983Z,19.77
2019-03-05T19:55:19.731Z,20.60
2019-03-05T19:57:46.569Z,20.97
2019-03-05T20:00:29.254Z,21.60
2019-03-05T20:02:55.702Z,20.50
2019-03-05T20:05:23.693Z,21.10
2019-03-05T20:07:50.388Z,21.12
2019-03-05T20:10:23.131Z,22.55
2019-03-05T20:12:49.791Z,23.77
2019-03-05T20:15:16.764Z,25.00
2019-03-05T20:17:43.639Z,27.77
2019-03-05T20:20:12.477Z,28.17
2019-03-05T20:22:39.170Z,31.97
2019-03-05T20:25:09.395Z,30.60
2019-03-05T20:27:36.124Z,29.50
2019-03-05T20:30:06.266Z,25.20
2019-03-05T20:32:34.638Z,26.37
2019-03-05T20:35:01.352Z,24.35
2019-03-05T20:37:28.670Z,24.82
2019-03-05T20:39:55.684Z,23.83
2019-03-05T20:42:22.591Z,24.57
2019-03-05T20:44:49.601Z,23.75
2019-03-05T20:47:16.180Z,25.75
2019-03-05T20:49:42.784Z,30.35
2019-03-05T20:52:09.440Z,25.57
2019-03-05T20:54:36.132Z,21.95
2019-03-05T20:57:03.051Z,25.85
2019-03-05T20:59:30.048Z,24.12
2019-03-05T21:01:56.798Z,27.27
2019-03-05T21:04:23.467Z,25.50
2019-03-05T21:06:50.171Z,28.30
2019-03-05T21:09:20.931Z,28.80
2019-03-05T21:11:47.713Z,25.55
2019-03-05T21:14:14.597Z,27.65
2019-03-05T21:16:41.030Z,27.73
2019-03-05T21:19:07.595Z,29.50
2019-03-05T21:21:34.162Z,29.27
2019-03-05T21:24:00.717Z,27.98
2019-03-05T21:26:27.270Z,28.32
2019-03-05T21:28:53.984Z,26.33
2019-03-05T21:31:20.629Z,28.77
2019-03-05T21:33:47.236Z,28.65
2019-03-05T21:36:13.801Z,29.35
2019-03-05T21:38:40.227Z,29.95
2019-03-05T21:41:06.791Z,29.40
2019-03-05T21:43:33.339Z,29.67
2019-03-05T21:46:06.346Z,29.70
2019-03-05T21:48:33.032Z,29.02
2019-03-05T21:50:59.579Z,28.38
2019-03-05T21:53:26.032Z,27.73
2019-03-05T21:55:53.178Z,26.40
2019-03-05T21:58:19.741Z,26.62
2019-03-05T22:00:46.288Z,26.33
2019-03-05T22:03:12.959Z,26.10
2019-03-05T22:05:39.623Z,23.32
2019-03-05T22:08:06.194Z,23.75
2019-03-05T22:10:33.130Z,22.82
2019-03-05T22:12:59.793Z,23.22
2019-03-05T22:15:28.308Z,23.38
2019-03-05T22:17:54.862Z,22.62
2019-03-05T22:20:23.103Z,22.77
2019-03-05T22:22:50.653Z,23.35
2019-03-05T22:25:19.006Z,21.77
2019-03-05T22:27:45.769Z,21.17
2019-03-05T22:30:14.904Z,21.27
2019-03-05T22:32:41.490Z,20.52
2019-03-05T22:35:08.466Z,21.05
2019-03-05T22:37:35.409Z,20.05
2019-03-05T22:40:04.971Z,20.00
2019-03-05T22:42:31.756Z,19.07
2019-03-05T22:44:58.337Z,20.02
2019-03-05T22:47:24.899Z,20.10
2019-03-05T22:49:51.355Z,20.25
2019-03-05T22:52:18.102Z,18.02
2019-03-05T22:54:44.577Z,18.30
2019-03-05T22:57:12.227Z,18.17
2019-03-05T22:59:38.865Z,18.67
2019-03-05T23:02:06.633Z,17.87
2019-03-05T23:04:34.204Z,19.42
2019-03-05T23:07:00.856Z,18.25
2019-03-05T23:09:28.699Z,18.05
2019-03-05T23:11:56.145Z,20.27
2019-03-05T23:14:22.862Z,25.32
2019-03-05T23:16:50.713Z,24.02
2019-03-05T23:19:17.653Z,25.70
2019-03-05T23:21:44.392Z,23.47
2019-03-05T23:24:11.228Z,24.15
2019-03-05T23:26:37.799Z,24.27
2019-03-05T23:29:07.239Z,26.02
2019-03-05T23:31:33.800Z,30.37
2019-03-05T23:34:00.653Z,28.20
2019-03-05T23:36:27.293Z,29.55
2019-03-05T23:38:53.898Z,26.62
2019-03-05T23:41:20.374Z,28.12
2019-03-05T23:43:46.963Z,26.87
2019-03-05T23:46:14.564Z,25.37
2019-03-05T23:48:41.522Z,25.70
2019-03-05T23:51:07.973Z,25.23
2019-03-05T23:53:34.531Z,25.37
2019-03-05T23:56:00.979Z,24.37
2019-03-05T23:58:27.398Z,26.70
